Pagrindinis puslapis
METAR-TAF:

METAR-TAF

Oro uostai :

Tivatas, Juodkalnija

platuma: 42-24N, ilguma: 018-44E, Aukštis: 5 m

Dabartinis oras

Ataskaita buvo paskelbta 21 minutes, ne 02:30 UTC
Vėjas 2 kt nuo kintamojo kryptimis
Temperatūra -2°C
Drėgmė 93%
Slėgis 1023 hPa
Matomumas 10 km arba daugiau
nėra debesų žemiau 1500 m ir nėra kamuolinių lietaus debesų

METAR: LYTV 180230Z VRB02KT CAVOK M02/M03 Q1023

Laikas: 03:51 (02:51 UTC)

Prognozė

Ataskaita buvo paskelbta 3 valandos ir 51 minutes, ne 23:00 UTC
Prognozė galioja nuo 18 metu 00 UTC su 18 metu 24 UTC
Vėjas 2 kt nuo kintamojo kryptimis
Matomumas 10 km arba daugiau
nėra debesų žemiau 1500 m ir nėra kamuolinių lietaus debesų
Tikimybė 40% :
Laikinai
nuo 18 metu 04 UTC su 18 metu 07 UTC
Matomumas: 2000 m
rūkana
Laikinai
nuo 18 metu 21 UTC su 18 metu 24 UTC
Matomumas: 5000 m
lietus

TAF: LYTV 172300Z 1800/1824 VRB02KT CAVOK TX15/1812Z TNM02/1804Z PROB40 TEMPO 1804/1807 2000 BR TEMPO 1821/1824 5000 RA

Orai ataskaitas ir orų prognozės (METAR, TAF).

turimą stotys yra geltonos ir raudonos taškus žemėlapyje.

Perkelti pele per norėdami pamatyti stoties vardą.

Tada spustelėkite, norėdami matyti oro stebėjimo ir prognozės.

Norėdami pakeisti žemėlapį: spustelėkite ant žalios mygtukų su juodo kryžiaus žemyn,; žalią mygtuką su brūkšneliu, jei norite nutolinti; arba žalių rodyklių gretimoms žemėlapius.


METAR-TAF: